Flowery Branch, GA (30542)

02:22 AM EDT on octombrie 02, 2014 (GMT -0400)
Hideaway Bay Marina | Change Station
CLOSE
Current Station
Staţie meteo personală
Location: Flowery Branch, GA
Elevation: 1109 ft
Nearby Weather Stations

Elev 1109 ft 34.18 °N, 83.94 °W | Updated 2 seconds ago

Cer senin
Cer senin
60.8 °F
Feels Like 60.8 °F
N
0.0
Vânt variabil Vânt from SE
Gusts 0.0 mph

astăzi
High -- | Low -- °F
--% Chance of Precip.
Ieri
High -- | Low -- °F
Precip. -- inch
7:30 AM 7:18 PM
Primul pătrar, 55% visible
Presiunea 30.04 inch
Vizibilitatea 10.0 mile
Nori Cer senin
Punctul de rouă 59 °F
Umiditatea 95%
Precipitaţii 0.00 inch
Adâncimea zăpezii Not available.
UV 0.0 out of 12
Pollen 6.00 out of 12
Calitatea aerului Not available.
Flu Activity Not available.
METAR KGVL 020553Z AUTO 00000KT 10SM CLR 18/16 A3008 RMK AO2 SLP171 T01830161 10244 20183 50005

More Conditions Fewer Conditions

Presiunea 30.04 inch
Vizibilitatea 10.0 mile
Nori Cer senin
Punctul de rouă 59 °F
Umiditatea 95%
Precipitaţii 0.00 inch
Adâncimea zăpezii Not available.
UV 0.0 out of 12
Pollen 6.00 out of 12
Calitatea aerului Not available.
Flu Activity Not available.
METAR KGVL 020553Z AUTO 00000KT 10SM CLR 18/16 A3008 RMK AO2 SLP171 T01830161 10244 20183 50005

More Conditions Fewer Conditions

10-Day Weather Forecast

Almanac

Astronomie

Oct. 02, 2014 Răsărit Apus
Timpul Actual 7:30 AM EDT 7:18 PM EDT
Crepusculul Civil 7:05 AM EDT 7:43 PM EDT
Crepusculul nautic 6:36 AM EDT 8:12 PM EDT
Răsărit Astronomic 6:07 AM EDT 8:41 PM EDT
Luna 3:10 PM EDT 1:01 AM EDT
Durata zilei lumină 12h 37m
Lungimea zilei
11h 47m
Tomorrow will be 2m 6s shorter.
Primul pătrar, 55% of the Moon is Illuminated
astăzi
Primul pătrar
Oct 8
Lună plină
Oct 15
Ultimul pătrar
Oct 23
New
Oct 30
Primul pătrar

Extremele de azi

State Highs State Lows

Community

WunderPhotos

Upload Photos

1,758,198 photos uploaded!

WunderBlogs® & News

Nearby

Adâncimea zapezii

Station Depth Elevation
No new snow has been reported.

Earthquake Activity

Oraş Distance Mag. Time & Date
No recent earthquake activity has been reported nearby.
Minimum magnitude displayed is 2.5.

Coastal Water Temperatures

Locul Temperatura
No Stations Reporting

Nearby Weather Stations